Widewater, Canada
Current Conditions -  °F | °C
As of 3:00 AM on Wednesday 26 Nov 2014 (Local Time) from CYZH Reporting Station
Light Snow Light Snow  
Wind Chill: -6°   Ceiling: 7500
Heat Index:   Visibility: 9mi
Dew Point:   Wind: 8mph
Humidity: 92%   Direction: 80°E
Pressure: 30.21"   Gusts: NA
Location:  55.35°N, 114.98°W
Report Text: CYZH 261000Z AUTO 08007KT 9SM -SN OVC075 M14/M15 A3021 RMK SLP278
Loading
Personal Weather Stations






























Interactive Weather Map New forecast layout! Learn more

10-Day Weather Forecast

Advertisements
Track Severe Weather on mobile